createdAt,value
2022-08-10T00:02:57.975Z,2.08
2022-08-10T00:09:51.096Z,1.98
2022-08-10T00:16:33.831Z,2.28
2022-08-10T00:23:16.240Z,2.25
2022-08-10T00:29:59.010Z,2.20
2022-08-10T00:36:41.369Z,2.28
2022-08-10T00:43:25.145Z,2.95
2022-08-10T00:50:08.427Z,2.70
2022-08-10T00:57:15.754Z,2.30
2022-08-10T01:04:57.860Z,2.58
2022-08-10T01:12:38.066Z,2.70
2022-08-10T01:18:46.302Z,2.40
2022-08-10T01:26:10.482Z,2.40
2022-08-10T01:33:31.940Z,2.70
2022-08-10T01:40:31.415Z,3.00
2022-08-10T01:47:36.896Z,2.58
2022-08-10T01:54:22.219Z,2.63
2022-08-10T02:01:07.256Z,2.40
2022-08-10T02:07:51.216Z,3.00
2022-08-10T02:14:41.329Z,2.58
2022-08-10T02:21:25.693Z,2.60
2022-08-10T02:28:10.028Z,2.65
2022-08-10T02:34:54.442Z,2.63
2022-08-10T02:45:00.913Z,2.70
2022-08-10T02:49:04.218Z,2.95
2022-08-10T02:56:16.350Z,2.95
2022-08-10T03:03:01.116Z,2.60
2022-08-10T03:09:46.008Z,2.70
2022-08-10T03:16:33.413Z,2.72
2022-08-10T03:23:23.252Z,2.65
2022-08-10T03:30:28.120Z,2.85
2022-08-10T03:37:08.721Z,2.97
2022-08-10T03:43:51.899Z,3.13
2022-08-10T03:50:51.262Z,2.97
2022-08-10T03:57:35.098Z,2.80
2022-08-10T04:04:32.318Z,3.17
2022-08-10T04:11:14.666Z,2.88
2022-08-10T04:18:05.771Z,3.00
2022-08-10T04:24:51.421Z,3.20
2022-08-10T04:31:35.998Z,3.47
2022-08-10T04:38:18.965Z,3.70
2022-08-10T04:45:08.048Z,2.83
2022-08-10T04:51:50.467Z,3.63
2022-08-10T04:58:32.803Z,3.03
2022-08-10T05:05:15.161Z,3.28
2022-08-10T05:11:57.519Z,3.08
2022-08-10T05:18:39.877Z,3.03
2022-08-10T05:25:22.277Z,2.90
2022-08-10T05:32:05.136Z,2.92
2022-08-10T05:38:49.376Z,2.65
2022-08-10T05:45:31.859Z,2.83
2022-08-10T05:52:15.376Z,2.60
2022-08-10T05:58:57.848Z,2.50
2022-08-10T06:05:43.325Z,2.47
2022-08-10T06:12:30.689Z,2.25
2022-08-10T06:19:20.743Z,2.90
2022-08-10T06:26:11.935Z,2.58
2022-08-10T06:32:59.813Z,2.35
2022-08-10T06:39:43.455Z,2.30
2022-08-10T06:46:27.765Z,2.20
2022-08-10T06:53:21.242Z,2.20
2022-08-10T07:00:06.904Z,2.08
2022-08-10T07:06:50.622Z,2.03
2022-08-10T07:14:17.198Z,1.90
2022-08-10T07:20:39.185Z,2.00
2022-08-10T07:27:23.397Z,1.90
2022-08-10T07:34:07.198Z,1.98
2022-08-10T07:40:51.739Z,2.10
2022-08-10T07:47:52.920Z,2.10
2022-08-10T07:54:42.556Z,2.10
2022-08-10T08:01:31.780Z,1.83
2022-08-10T08:08:15.544Z,1.83
2022-08-10T08:14:59.784Z,1.83
2022-08-10T08:24:05.431Z,1.90
2022-08-10T08:28:46.187Z,2.00
2022-08-10T08:35:29.746Z,1.80
2022-08-10T08:42:30.839Z,1.70
2022-08-10T08:50:07.868Z,2.00
2022-08-10T08:57:50.632Z,1.58
2022-08-10T09:04:52.704Z,1.83
2022-08-10T09:12:02.399Z,1.70
2022-08-10T09:19:09.564Z,1.95
2022-08-10T09:25:56.005Z,1.95
2022-08-10T09:36:15.194Z,1.83
2022-08-10T09:40:57.684Z,1.65
2022-08-10T09:48:01.879Z,1.60
2022-08-10T09:55:06.461Z,1.80
2022-08-10T10:02:03.708Z,1.50
2022-08-10T10:09:10.140Z,1.50
2022-08-10T10:16:05.916Z,1.63
2022-08-10T10:23:06.931Z,1.67
2022-08-10T10:30:06.505Z,1.75
2022-08-10T10:36:52.115Z,1.88
2022-08-10T10:43:59.429Z,1.77
2022-08-10T10:50:54.293Z,1.70
2022-08-10T10:58:04.816Z,1.38
2022-08-10T11:04:58.910Z,1.60
2022-08-10T11:12:01.763Z,1.75
2022-08-10T11:19:08.580Z,1.60
2022-08-10T11:26:15.320Z,1.50
2022-08-10T11:33:31.061Z,1.83
2022-08-10T11:40:26.134Z,1.80
2022-08-10T11:47:13.015Z,1.58
2022-08-10T11:54:35.114Z,1.58
2022-08-10T12:01:29.504Z,1.40
2022-08-10T12:10:02.911Z,1.65
2022-08-10T12:15:29.438Z,1.50
2022-08-10T12:22:24.919Z,1.40
2022-08-10T12:29:30.800Z,1.40
2022-08-10T12:36:26.856Z,1.60
2022-08-10T12:44:05.488Z,1.60
2022-08-10T12:50:37.736Z,1.40
2022-08-10T12:57:24.653Z,1.73
2022-08-10T13:04:20.799Z,1.40
2022-08-10T13:11:18.505Z,1.70
2022-08-10T13:18:18.665Z,1.73
2022-08-10T13:25:05.367Z,1.50
2022-08-10T13:32:03.777Z,1.92
2022-08-10T13:38:56.514Z,1.52
2022-08-10T13:45:47.704Z,1.40
2022-08-10T13:52:34.491Z,1.63
2022-08-10T13:59:19.091Z,1.52
2022-08-10T14:06:04.783Z,1.92
2022-08-10T14:12:50.530Z,1.63
2022-08-10T14:19:39.451Z,1.60
2022-08-10T14:26:30.886Z,1.98
2022-08-10T14:33:19.228Z,1.60
2022-08-10T14:40:09.193Z,1.60
2022-08-10T14:46:57.282Z,1.50
2022-08-10T14:53:41.682Z,1.70
2022-08-10T15:00:33.073Z,1.50
2022-08-10T15:07:29.611Z,1.50
2022-08-10T15:14:41.441Z,1.75
2022-08-10T15:21:17.821Z,1.52
2022-08-10T15:28:08.110Z,1.63
2022-08-10T15:35:10.019Z,1.67
2022-08-10T15:42:00.272Z,1.60
2022-08-10T15:48:48.474Z,1.38
2022-08-10T15:55:43.191Z,1.45
2022-08-10T16:02:32.295Z,1.90
2022-08-10T16:10:22.694Z,1.55
2022-08-10T16:16:36.890Z,1.60
2022-08-10T16:23:23.279Z,1.50
2022-08-10T16:30:06.480Z,2.00
2022-08-10T16:37:10.769Z,1.65
2022-08-10T16:43:53.574Z,1.95
2022-08-10T16:50:41.679Z,1.88
2022-08-10T16:57:28.024Z,1.90
2022-08-10T17:04:12.601Z,2.08
2022-08-10T17:10:56.332Z,1.85
2022-08-10T17:17:45.101Z,1.65
2022-08-10T17:24:43.178Z,2.22
2022-08-10T17:31:54.378Z,1.50
2022-08-10T17:38:38.284Z,1.80
2022-08-10T17:45:46.931Z,1.40
2022-08-10T17:52:32.387Z,1.58
2022-08-10T17:59:17.284Z,1.83
2022-08-10T18:06:06.586Z,1.40
2022-08-10T18:12:55.883Z,2.10
2022-08-10T18:19:41.856Z,2.20
2022-08-10T18:26:24.794Z,1.88
2022-08-10T18:33:11.251Z,1.80
2022-08-10T18:39:59.420Z,1.55
2022-08-10T18:46:52.747Z,1.80
2022-08-10T18:53:38.807Z,2.08
2022-08-10T19:00:25.634Z,2.08
2022-08-10T19:07:47.428Z,1.70
2022-08-10T19:14:50.169Z,2.03
2022-08-10T19:21:39.312Z,1.90
2022-08-10T19:28:33.256Z,2.05
2022-08-10T19:35:30.625Z,2.30
2022-08-10T19:42:41.533Z,2.20
2022-08-10T19:49:52.528Z,2.20
2022-08-10T19:56:57.928Z,2.15
2022-08-10T20:03:50.907Z,1.98
2022-08-10T20:10:51.739Z,2.00
2022-08-10T20:17:51.396Z,2.40
2022-08-10T20:24:59.252Z,3.00
2022-08-10T20:31:56.969Z,2.40
2022-08-10T20:38:48.335Z,2.05
2022-08-10T20:46:05.073Z,2.10
2022-08-10T20:52:44.660Z,2.10
2022-08-10T21:00:02.548Z,2.35
2022-08-10T21:07:50.642Z,2.28
2022-08-10T21:15:07.131Z,2.20
2022-08-10T21:22:03.398Z,1.90
2022-08-10T21:29:21.581Z,2.25
2022-08-10T21:36:17.063Z,2.50
2022-08-10T21:43:57.630Z,2.03
2022-08-10T21:51:16.569Z,2.17
2022-08-10T21:58:34.587Z,2.38
2022-08-10T22:05:39.045Z,2.42
2022-08-10T22:12:48.553Z,2.20
2022-08-10T22:19:55.847Z,2.25
2022-08-10T22:31:28.356Z,2.03
2022-08-10T22:34:56.054Z,2.17
2022-08-10T22:42:21.018Z,1.98
2022-08-10T22:49:03.639Z,2.17
2022-08-10T22:56:14.161Z,2.35
2022-08-10T23:03:04.448Z,2.40
2022-08-10T23:10:08.447Z,2.10
2022-08-10T23:17:12.390Z,2.30
2022-08-10T23:23:57.433Z,2.20
2022-08-10T23:30:42.826Z,2.20
2022-08-10T23:37:35.077Z,2.33
2022-08-10T23:44:19.771Z,2.20
2022-08-10T23:51:16.105Z,2.30
2022-08-10T23:58:07.193Z,2.33
